Time;durP1;ratioP1;P1;durP2;ratioP2;P2;SDS_P1;SDS_P2;PMS_P1;PMS_P2;Temp;Humidity;BMP_temperature;BMP_pressure;BME280_temperature;BME280_humidity;BME280_pressure;Samples;Min_cycle;Max_cycle;Signal;HPM_P1;HPM_P2
2024/01/23 00:02:26;;;;;;;95.22;73.82;;;;;;;;;;5070333;28;20091;-77
2024/01/23 00:04:51;;;;;;;87.85;68.65;;;;;;;;;;5055014;28;20034;-79
2024/01/23 00:07:16;;;;;;;60.63;45.83;;;;;;;;;;5077584;28;20023;-79
2024/01/23 00:09:42;;;;;;;55.78;43.05;;;;;;;;;;5075913;28;20419;-78
2024/01/23 00:12:07;;;;;;;54.20;40.25;;;;;;;;;;5077551;28;20036;-80
2024/01/23 00:14:33;;;;;;;70.13;52.00;;;;;;;;;;5057857;28;20016;-78
2024/01/23 00:16:58;;;;;;;104.60;75.85;;;;;;;;;;5075088;28;20035;-77
2024/01/23 00:19:23;;;;;;;194.68;132.65;;;;;;;;;;5074660;28;20067;-77
2024/01/23 00:21:49;;;;;;;122.07;89.28;;;;;;;;;;5046653;28;20031;-77
2024/01/23 00:24:14;;;;;;;72.97;53.80;;;;;;;;;;5076383;28;20513;-80
2024/01/23 00:26:40;;;;;;;55.88;42.60;;;;;;;;;;5077929;28;20093;-77
2024/01/23 00:29:07;;;;;;;46.90;36.90;;;;;;;;;;5075884;28;20024;-81
2024/01/23 00:31:33;;;;;;;43.50;34.30;;;;;;;;;;5051462;28;20031;-78
2024/01/23 00:33:58;;;;;;;67.18;51.85;;;;;;;;;;5053416;28;20032;-77
2024/01/23 00:36:23;;;;;;;63.08;48.80;;;;;;;;;;5059220;28;20036;-77
2024/01/23 00:38:49;;;;;;;60.75;44.90;;;;;;;;;;5040500;28;20032;-78
2024/01/23 00:41:14;;;;;;;57.47;43.33;;;;;;;;;;5034380;28;20749;-81
2024/01/23 00:43:39;;;;;;;43.47;35.25;;;;;;;;;;5024401;28;20113;-79
2024/01/23 00:46:05;;;;;;;47.58;38.58;;;;;;;;;;5049704;28;20451;-80
2024/01/23 00:48:30;;;;;;;48.88;39.90;;;;;;;;;;5036592;28;21088;-81
2024/01/23 00:50:55;;;;;;;56.40;44.20;;;;;;;;;;5052395;28;20135;-76
2024/01/23 00:53:21;;;;;;;74.70;57.35;;;;;;;;;;5054637;28;20020;-78
2024/01/23 00:55:46;;;;;;;91.00;68.78;;;;;;;;;;5054891;28;20041;-79
2024/01/23 00:58:13;;;;;;;82.88;60.67;;;;;;;;;;5056412;28;20047;-79
2024/01/23 01:00:39;;;;;;;63.03;47.40;;;;;;;;;;5053556;28;20440;-78
2024/01/23 01:03:05;;;;;;;49.90;39.25;;;;;;;;;;5038907;28;20440;-77
2024/01/23 01:05:30;;;;;;;52.45;39.40;;;;;;;;;;5023336;28;20060;-79
2024/01/23 01:07:55;;;;;;;49.15;38.10;;;;;;;;;;5044860;28;20017;-78
2024/01/23 01:10:22;;;;;;;50.47;41.85;;;;;;;;;;5036131;28;20352;-77
2024/01/23 01:12:48;;;;;;;53.75;41.53;;;;;;;;;;5045486;28;20029;-77
2024/01/23 01:15:13;;;;;;;58.00;44.42;;;;;;;;;;5050688;28;20371;-80
2024/01/23 01:17:38;;;;;;;57.47;43.72;;;;;;;;;;5037560;28;20040;-78
2024/01/23 01:20:04;;;;;;;68.25;53.83;;;;;;;;;;5049685;28;20033;-76
2024/01/23 01:22:30;;;;;;;74.97;57.33;;;;;;;;;;5038565;28;20591;-77
2024/01/23 01:24:55;;;;;;;60.40;47.00;;;;;;;;;;5044650;28;20614;-78
2024/01/23 01:27:20;;;;;;;55.17;46.53;;;;;;;;;;5037377;28;20050;-79
2024/01/23 01:29:46;;;;;;;90.03;80.78;;;;;;;;;;5054579;28;20106;-76
2024/01/23 01:32:11;;;;;;;73.53;61.10;;;;;;;;;;5061780;28;20052;-76
2024/01/23 01:34:37;;;;;;;67.57;52.58;;;;;;;;;;5080167;28;20030;-76
2024/01/23 01:37:02;;;;;;;66.88;48.50;;;;;;;;;;5054549;28;20028;-77
2024/01/23 01:39:27;;;;;;;78.30;61.60;;;;;;;;;;5070701;28;20024;-78
2024/01/23 01:41:56;;;;;;;62.45;50.60;;;;;;;;;;5079232;28;20027;-78
2024/01/23 01:44:21;;;;;;;62.63;49.00;;;;;;;;;;5077904;28;20040;-74
2024/01/23 01:46:51;;;;;;;69.70;54.42;;;;;;;;;;5080147;28;20742;-75
2024/01/23 01:49:17;;;;;;;68.63;53.72;;;;;;;;;;5074045;28;20032;-77
2024/01/23 01:51:43;;;;;;;66.22;52.40;;;;;;;;;;5072011;28;20042;-76
2024/01/23 01:54:08;;;;;;;68.97;52.63;;;;;;;;;;5078822;28;20431;-76
2024/01/23 01:56:34;;;;;;;50.67;38.72;;;;;;;;;;5072153;28;20028;-77
2024/01/23 01:58:59;;;;;;;51.00;39.97;;;;;;;;;;5074652;28;20035;-77
2024/01/23 02:01:26;;;;;;;62.22;47.88;;;;;;;;;;5080326;28;20028;-77
2024/01/23 02:03:51;;;;;;;88.47;67.18;;;;;;;;;;5079587;28;20431;-74
2024/01/23 02:06:17;;;;;;;77.95;58.53;;;;;;;;;;5060255;28;20058;-74
2024/01/23 02:08:42;;;;;;;82.47;62.00;;;;;;;;;;5056172;28;20024;-78
2024/01/23 02:11:08;;;;;;;94.70;73.40;;;;;;;;;;5077763;28;20187;-81
2024/01/23 02:13:33;;;;;;;82.35;63.90;;;;;;;;;;5079282;28;20431;-81
2024/01/23 02:16:21;;;;;;;70.90;55.40;;;;;;;;;;5067711;28;20036;-79
2024/01/23 02:19:02;;;;;;;80.38;60.92;;;;;;;;;;5076922;28;20024;-78
2024/01/23 02:21:27;;;;;;;72.03;54.53;;;;;;;;;;5078388;28;20031;-78
2024/01/23 02:23:53;;;;;;;75.75;58.38;;;;;;;;;;5078074;28;20023;-78
2024/01/23 02:26:18;;;;;;;77.95;58.28;;;;;;;;;;5078549;28;20027;-80
2024/01/23 02:28:43;;;;;;;66.53;50.17;;;;;;;;;;5079460;28;20020;-78
2024/01/23 02:31:09;;;;;;;61.17;47.70;;;;;;;;;;5077899;28;20020;-81
2024/01/23 02:33:35;;;;;;;60.78;46.63;;;;;;;;;;5079526;28;20040;-78
2024/01/23 02:36:00;;;;;;;62.00;47.58;;;;;;;;;;5080127;28;20032;-77
2024/01/23 02:38:25;;;;;;;57.13;42.97;;;;;;;;;;5080109;28;20113;-78
2024/01/23 02:40:51;;;;;;;54.40;40.65;;;;;;;;;;5057695;28;20119;-79
2024/01/23 02:43:16;;;;;;;47.83;35.95;;;;;;;;;;5078021;28;20024;-81
2024/01/23 02:45:41;;;;;;;43.60;33.83;;;;;;;;;;5077869;28;20450;-78
2024/01/23 02:48:29;;;;;;;45.35;36.17;;;;;;;;;;5078306;28;20338;-76
2024/01/23 02:50:54;;;;;;;46.10;35.45;;;;;;;;;;5073561;28;20114;-76
2024/01/23 02:56:22;;;;;;;44.00;33.25;;;;;;;;;;5072024;28;20534;-78
2024/01/23 02:58:48;;;;;;;48.72;36.67;;;;;;;;;;5058543;28;20118;-77
2024/01/23 03:01:13;;;;;;;43.30;34.25;;;;;;;;;;5077018;28;20484;-81
2024/01/23 03:03:38;;;;;;;46.10;35.85;;;;;;;;;;5058784;28;20075;-77
2024/01/23 03:06:04;;;;;;;46.25;36.97;;;;;;;;;;5080201;28;20031;-79
2024/01/23 03:08:29;;;;;;;46.33;36.35;;;;;;;;;;5077631;28;20139;-78
2024/01/23 03:10:54;;;;;;;47.45;37.15;;;;;;;;;;5055301;28;20124;-77
2024/01/23 03:13:20;;;;;;;40.60;32.42;;;;;;;;;;5077719;28;20035;-77
2024/01/23 03:15:48;;;;;;;42.50;33.33;;;;;;;;;;5077463;28;20036;-77
2024/01/23 03:18:13;;;;;;;44.53;35.70;;;;;;;;;;5057856;28;20042;-82
2024/01/23 03:20:38;;;;;;;43.53;32.83;;;;;;;;;;5077896;28;20024;-80
2024/01/23 03:23:04;;;;;;;43.97;33.53;;;;;;;;;;5073878;28;20051;-80
2024/01/23 03:25:29;;;;;;;52.92;37.45;;;;;;;;;;5076536;28;20024;-78
2024/01/23 03:27:54;;;;;;;60.50;45.78;;;;;;;;;;5078194;28;20035;-78
2024/01/23 03:30:26;;;;;;;66.72;52.00;;;;;;;;;;5078998;28;20032;-79
2024/01/23 03:33:00;;;;;;;76.95;62.03;;;;;;;;;;5072816;28;20135;-76
2024/01/23 03:35:25;;;;;;;67.57;55.13;;;;;;;;;;5076789;28;20032;-80
2024/01/23 03:37:51;;;;;;;53.72;43.13;;;;;;;;;;5078775;28;20055;-74
2024/01/23 03:40:17;;;;;;;50.55;39.70;;;;;;;;;;5064749;28;20050;-80
2024/01/23 03:42:42;;;;;;;47.95;37.03;;;;;;;;;;5082263;28;20024;-75
2024/01/23 03:45:08;;;;;;;44.90;34.53;;;;;;;;;;5076463;28;20022;-75
2024/01/23 03:47:34;;;;;;;44.88;35.83;;;;;;;;;;5053122;28;20032;-78
2024/01/23 03:49:59;;;;;;;46.38;34.08;;;;;;;;;;5074865;28;20423;-77
2024/01/23 03:52:25;;;;;;;45.67;35.80;;;;;;;;;;5073440;28;20071;-78
2024/01/23 03:54:50;;;;;;;44.65;35.20;;;;;;;;;;5055939;28;20039;-76
2024/01/23 03:57:15;;;;;;;43.50;33.33;;;;;;;;;;5075993;28;20032;-76
2024/01/23 03:59:44;;;;;;;44.45;33.20;;;;;;;;;;5064415;28;20040;-76
2024/01/23 04:02:10;;;;;;;46.17;34.28;;;;;;;;;;5074829;28;20707;-77
2024/01/23 04:04:36;;;;;;;44.00;33.88;;;;;;;;;;5075823;28;20573;-79
2024/01/23 04:07:02;;;;;;;46.55;35.20;;;;;;;;;;5076041;28;20481;-76
2024/01/23 04:09:27;;;;;;;48.33;36.97;;;;;;;;;;5075632;28;20044;-75
2024/01/23 04:11:52;;;;;;;46.72;37.15;;;;;;;;;;5077422;28;20095;-75
2024/01/23 04:14:18;;;;;;;48.85;36.28;;;;;;;;;;5077941;28;20038;-78
2024/01/23 04:16:43;;;;;;;50.92;36.45;;;;;;;;;;5077662;28;20060;-80
2024/01/23 04:19:09;;;;;;;46.95;36.03;;;;;;;;;;5076174;28;20059;-75
2024/01/23 04:21:35;;;;;;;46.55;35.92;;;;;;;;;;5075402;28;20028;-78
2024/01/23 04:24:01;;;;;;;49.22;37.03;;;;;;;;;;5074887;28;20053;-77
2024/01/23 04:26:27;;;;;;;51.05;36.97;;;;;;;;;;5074870;28;20034;-76
2024/01/23 04:28:52;;;;;;;49.92;36.50;;;;;;;;;;5075036;28;20036;-76
2024/01/23 04:31:17;;;;;;;46.28;33.58;;;;;;;;;;5077005;28;20020;-79
2024/01/23 04:33:45;;;;;;;38.63;29.95;;;;;;;;;;5076345;28;20079;-77
2024/01/23 04:36:10;;;;;;;36.80;29.33;;;;;;;;;;5073313;28;20480;-76
2024/01/23 04:38:36;;;;;;;37.67;28.98;;;;;;;;;;5068959;28;20028;-77
2024/01/23 04:41:02;;;;;;;102.07;90.30;;;;;;;;;;5075552;28;20016;-78
2024/01/23 04:43:27;;;;;;;48.38;39.60;;;;;;;;;;5077785;28;20732;-78
2024/01/23 04:45:52;;;;;;;40.10;31.17;;;;;;;;;;5075804;28;20028;-77
2024/01/23 04:48:18;;;;;;;57.47;51.30;;;;;;;;;;5071556;28;20216;-76
2024/01/23 04:50:43;;;;;;;55.90;49.78;;;;;;;;;;5075314;28;20119;-76
2024/01/23 04:53:08;;;;;;;43.85;39.13;;;;;;;;;;5076586;28;20115;-75
2024/01/23 04:55:34;;;;;;;40.03;32.60;;;;;;;;;;5077010;28;20072;-75
2024/01/23 04:57:59;;;;;;;37.85;31.40;;;;;;;;;;5074589;28;20036;-79
2024/01/23 05:00:24;;;;;;;34.15;27.92;;;;;;;;;;5073804;28;20028;-75
2024/01/23 05:02:50;;;;;;;42.90;33.20;;;;;;;;;;5072248;28;20028;-75
2024/01/23 05:05:15;;;;;;;40.08;32.42;;;;;;;;;;5071824;28;20095;-76
2024/01/23 05:07:40;;;;;;;34.58;27.83;;;;;;;;;;5052990;28;20028;-79
2024/01/23 05:10:06;;;;;;;36.40;28.52;;;;;;;;;;5071905;28;20031;-80
2024/01/23 05:12:31;;;;;;;33.75;28.65;;;;;;;;;;5065048;28;20031;-77
2024/01/23 05:14:57;;;;;;;38.58;30.58;;;;;;;;;;5073059;28;20035;-79
2024/01/23 05:17:22;;;;;;;36.70;32.38;;;;;;;;;;5058033;28;20043;-76
2024/01/23 05:19:48;;;;;;;36.15;31.17;;;;;;;;;;5073557;28;20038;-79
2024/01/23 05:22:13;;;;;;;45.90;34.17;;;;;;;;;;5073164;28;20037;-76
2024/01/23 05:24:38;;;;;;;51.13;40.05;;;;;;;;;;5076446;28;20028;-77
2024/01/23 05:27:04;;;;;;;40.88;33.35;;;;;;;;;;5052330;28;20070;-76
2024/01/23 05:29:30;;;;;;;42.13;33.60;;;;;;;;;;5076137;28;20023;-76
2024/01/23 05:31:55;;;;;;;45.35;35.03;;;;;;;;;;5072582;28;20062;-75
2024/01/23 05:34:21;;;;;;;47.60;38.40;;;;;;;;;;5074089;28;20077;-76
2024/01/23 05:36:46;;;;;;;45.05;36.28;;;;;;;;;;5072156;28;20036;-79
2024/01/23 05:39:12;;;;;;;46.60;36.60;;;;;;;;;;5042156;28;20072;-78
2024/01/23 05:41:37;;;;;;;48.15;38.88;;;;;;;;;;5061741;28;20451;-76
2024/01/23 05:44:02;;;;;;;61.97;49.95;;;;;;;;;;5061214;28;20039;-76
2024/01/23 05:46:28;;;;;;;63.42;50.78;;;;;;;;;;5060095;28;20032;-78
2024/01/23 05:48:54;;;;;;;85.07;71.85;;;;;;;;;;5047699;28;20496;-76
2024/01/23 05:51:19;;;;;;;61.72;49.33;;;;;;;;;;5052123;28;20420;-78
2024/01/23 05:53:44;;;;;;;83.00;66.38;;;;;;;;;;5075463;28;20074;-78
2024/01/23 05:56:10;;;;;;;62.08;52.13;;;;;;;;;;5051243;28;20029;-82
2024/01/23 05:58:35;;;;;;;82.43;68.22;;;;;;;;;;5051978;28;20444;-78
2024/01/23 06:01:00;;;;;;;65.57;54.58;;;;;;;;;;5067953;28;20028;-77
2024/01/23 06:03:26;;;;;;;57.80;46.95;;;;;;;;;;5073048;28;20032;-81
2024/01/23 06:05:51;;;;;;;62.28;49.28;;;;;;;;;;5074344;28;20028;-77
2024/01/23 06:08:17;;;;;;;58.53;46.92;;;;;;;;;;5074523;28;20028;-77
2024/01/23 06:10:42;;;;;;;59.47;45.38;;;;;;;;;;5073839;28;20059;-76
2024/01/23 06:13:07;;;;;;;59.55;48.67;;;;;;;;;;5073821;28;20512;-78
2024/01/23 06:15:33;;;;;;;54.85;44.85;;;;;;;;;;5043376;28;20051;-79
2024/01/23 06:17:58;;;;;;;52.35;40.78;;;;;;;;;;5065789;28;20032;-77
2024/01/23 06:20:23;;;;;;;59.25;49.17;;;;;;;;;;5055293;28;20480;-79
2024/01/23 06:22:49;;;;;;;64.03;51.65;;;;;;;;;;5079748;28;20032;-78
2024/01/23 06:25:14;;;;;;;53.47;42.15;;;;;;;;;;5056219;28;20063;-77
2024/01/23 06:27:40;;;;;;;75.10;64.65;;;;;;;;;;5077977;28;20437;-75
2024/01/23 06:30:07;;;;;;;70.65;57.75;;;;;;;;;;5057348;28;20140;-75
2024/01/23 06:32:33;;;;;;;62.25;54.42;;;;;;;;;;5066104;28;20132;-74
2024/01/23 06:34:58;;;;;;;71.65;62.72;;;;;;;;;;5060136;28;20119;-77
2024/01/23 06:37:24;;;;;;;64.63;52.95;;;;;;;;;;5069759;28;20097;-74
2024/01/23 06:39:49;;;;;;;75.53;59.22;;;;;;;;;;5055635;28;20569;-77
2024/01/23 06:42:14;;;;;;;94.07;76.28;;;;;;;;;;5042924;28;20119;-76
2024/01/23 06:44:40;;;;;;;62.70;52.42;;;;;;;;;;5057542;28;20036;-77
2024/01/23 06:47:05;;;;;;;57.53;49.33;;;;;;;;;;5037504;28;20033;-77
2024/01/23 06:49:31;;;;;;;50.97;41.20;;;;;;;;;;5070567;28;20039;-72
2024/01/23 06:51:56;;;;;;;58.55;50.15;;;;;;;;;;5068515;28;20041;-73
2024/01/23 06:54:22;;;;;;;69.07;60.22;;;;;;;;;;5067203;28;20439;-74
2024/01/23 06:56:47;;;;;;;68.28;55.53;;;;;;;;;;5063477;28;20103;-74
2024/01/23 06:59:12;;;;;;;61.80;50.65;;;;;;;;;;5069797;28;20405;-73
2024/01/23 07:01:38;;;;;;;62.78;50.72;;;;;;;;;;5067831;28;20028;-74
2024/01/23 07:04:04;;;;;;;68.78;53.67;;;;;;;;;;5055003;28;20024;-73
2024/01/23 07:06:29;;;;;;;57.78;44.67;;;;;;;;;;5067860;28;20345;-73
2024/01/23 07:08:54;;;;;;;74.57;60.47;;;;;;;;;;5073341;28;20426;-74
2024/01/23 07:11:20;;;;;;;72.65;58.67;;;;;;;;;;5072848;28;20036;-73
2024/01/23 07:13:46;;;;;;;79.10;63.70;;;;;;;;;;5057391;28;20049;-74
2024/01/23 07:16:11;;;;;;;67.78;52.17;;;;;;;;;;5071893;28;20107;-74
2024/01/23 07:18:36;;;;;;;126.50;89.90;;;;;;;;;;5071410;28;20455;-73
2024/01/23 07:21:02;;;;;;;114.18;88.45;;;;;;;;;;5071465;28;20031;-73
2024/01/23 07:23:27;;;;;;;123.43;98.30;;;;;;;;;;5071902;28;20027;-74
2024/01/23 07:25:53;;;;;;;80.25;63.13;;;;;;;;;;5072994;28;20052;-73
2024/01/23 07:28:18;;;;;;;85.53;67.30;;;;;;;;;;5050874;28;20119;-73
2024/01/23 07:30:43;;;;;;;74.53;56.95;;;;;;;;;;5072333;28;20023;-76
2024/01/23 07:33:09;;;;;;;75.35;54.83;;;;;;;;;;5073791;28;20505;-75
2024/01/23 07:35:34;;;;;;;61.90;49.63;;;;;;;;;;5083231;28;20627;-75
2024/01/23 07:38:00;;;;;;;62.60;48.00;;;;;;;;;;5085647;27;20088;-75
2024/01/23 07:40:25;;;;;;;63.13;47.60;;;;;;;;;;5084287;28;20434;-72
2024/01/23 07:42:50;;;;;;;63.33;49.83;;;;;;;;;;5084163;28;20028;-76
2024/01/23 07:45:16;;;;;;;65.95;50.63;;;;;;;;;;5087267;28;20146;-76
2024/01/23 07:47:41;;;;;;;68.43;54.17;;;;;;;;;;5096195;28;20525;-76
2024/01/23 07:50:08;;;;;;;65.40;51.65;;;;;;;;;;5096237;28;20024;-75
2024/01/23 07:52:33;;;;;;;197.50;168.48;;;;;;;;;;5084272;28;20048;-72
2024/01/23 07:54:59;;;;;;;103.40;87.10;;;;;;;;;;5078138;28;20020;-72
2024/01/23 07:57:24;;;;;;;76.45;60.17;;;;;;;;;;5071434;28;20053;-76
2024/01/23 07:59:49;;;;;;;95.60;68.80;;;;;;;;;;5041039;28;20128;-76
2024/01/23 08:02:15;;;;;;;87.40;64.57;;;;;;;;;;5019273;28;20048;-76
2024/01/23 08:04:40;;;;;;;96.15;68.25;;;;;;;;;;5014284;28;20047;-79
2024/01/23 08:07:06;;;;;;;80.63;60.13;;;;;;;;;;5031204;28;20031;-80
2024/01/23 08:09:32;;;;;;;54.63;44.60;;;;;;;;;;5033869;28;20036;-76
2024/01/23 08:11:57;;;;;;;77.25;66.93;;;;;;;;;;5033091;28;20034;-76
2024/01/23 08:14:22;;;;;;;69.28;54.83;;;;;;;;;;5021719;28;20128;-78
2024/01/23 08:16:48;;;;;;;95.45;76.50;;;;;;;;;;5022542;28;20115;-74
2024/01/23 08:19:13;;;;;;;62.63;49.35;;;;;;;;;;5024600;28;20106;-72
2024/01/23 08:21:39;;;;;;;75.30;61.97;;;;;;;;;;5029075;28;20029;-74
2024/01/23 08:24:04;;;;;;;63.25;53.45;;;;;;;;;;5028076;28;20028;-73
2024/01/23 08:26:29;;;;;;;67.30;55.72;;;;;;;;;;5028632;28;20333;-71
2024/01/23 08:28:56;;;;;;;78.43;63.78;;;;;;;;;;5027516;28;20039;-77
2024/01/23 08:31:22;;;;;;;91.55;70.55;;;;;;;;;;5027329;28;20025;-75
2024/01/23 08:33:47;;;;;;;88.30;64.43;;;;;;;;;;5027888;28;20052;-76
2024/01/23 08:36:12;;;;;;;73.97;54.90;;;;;;;;;;5030397;28;20025;-77
2024/01/23 08:38:38;;;;;;;64.53;51.70;;;;;;;;;;5029741;28;20025;-75
2024/01/23 08:41:03;;;;;;;65.93;52.78;;;;;;;;;;5028165;28;20033;-76
2024/01/23 08:43:29;;;;;;;60.83;47.90;;;;;;;;;;5029068;28;20041;-76
2024/01/23 08:45:54;;;;;;;90.50;74.72;;;;;;;;;;5015386;28;20036;-79
2024/01/23 08:48:22;;;;;;;67.55;53.95;;;;;;;;;;5014396;28;20372;-77
2024/01/23 08:50:48;;;;;;;93.38;71.90;;;;;;;;;;5023069;28;20101;-77
2024/01/23 08:53:13;;;;;;;105.88;83.43;;;;;;;;;;5027695;28;20044;-75
2024/01/23 08:55:39;;;;;;;135.20;108.20;;;;;;;;;;5032358;28;20032;-77
2024/01/23 08:58:04;;;;;;;99.95;78.93;;;;;;;;;;5029896;28;20471;-76
2024/01/23 09:00:29;;;;;;;124.50;98.97;;;;;;;;;;5030606;28;20365;-77
2024/01/23 09:02:55;;;;;;;120.32;94.10;;;;;;;;;;5032720;28;20037;-75
2024/01/23 09:05:20;;;;;;;86.53;67.97;;;;;;;;;;5031464;28;20021;-77
2024/01/23 09:07:45;;;;;;;75.70;60.15;;;;;;;;;;5031088;28;20033;-77
2024/01/23 09:10:11;;;;;;;80.80;63.55;;;;;;;;;;5033349;28;20104;-76
2024/01/23 09:12:36;;;;;;;72.78;58.65;;;;;;;;;;5033124;28;20329;-76
2024/01/23 09:15:05;;;;;;;72.78;54.63;;;;;;;;;;5032764;28;20034;-75
2024/01/23 09:17:30;;;;;;;57.78;45.95;;;;;;;;;;5035012;28;20040;-75
2024/01/23 09:19:55;;;;;;;71.47;59.83;;;;;;;;;;5032496;28;20629;-77
2024/01/23 09:22:21;;;;;;;71.60;57.55;;;;;;;;;;5035615;28;20017;-78
2024/01/23 09:24:46;;;;;;;117.20;103.95;;;;;;;;;;5032974;28;20026;-76
2024/01/23 09:27:11;;;;;;;86.95;71.43;;;;;;;;;;5032799;28;20052;-75
2024/01/23 09:29:37;;;;;;;84.72;69.07;;;;;;;;;;5031627;28;20189;-78
2024/01/23 09:32:03;;;;;;;73.00;56.97;;;;;;;;;;5032062;28;20049;-78
2024/01/23 09:34:28;;;;;;;79.15;66.97;;;;;;;;;;5035203;28;20029;-78
2024/01/23 09:36:54;;;;;;;76.68;60.65;;;;;;;;;;5031607;28;20022;-76
2024/01/23 09:39:19;;;;;;;62.90;51.05;;;;;;;;;;5031458;28;20036;-77
2024/01/23 09:41:46;;;;;;;61.20;51.92;;;;;;;;;;5032652;28;20028;-78
2024/01/23 09:44:12;;;;;;;63.33;53.90;;;;;;;;;;5034194;28;20026;-77
2024/01/23 09:46:38;;;;;;;59.72;51.42;;;;;;;;;;5031983;28;20333;-77
2024/01/23 09:49:03;;;;;;;63.97;56.40;;;;;;;;;;5031981;28;20021;-78
2024/01/23 09:51:29;;;;;;;56.10;49.35;;;;;;;;;;5031328;28;20033;-77
2024/01/23 09:53:55;;;;;;;52.30;45.35;;;;;;;;;;5036033;28;20040;-77
2024/01/23 09:56:21;;;;;;;40.80;36.13;;;;;;;;;;5041065;28;20032;-77
2024/01/23 09:58:46;;;;;;;54.08;46.13;;;;;;;;;;5036979;28;20037;-77
2024/01/23 10:01:12;;;;;;;140.80;123.78;;;;;;;;;;5034609;28;20048;-77
2024/01/23 10:03:37;;;;;;;170.63;153.30;;;;;;;;;;5035218;28;20029;-78
2024/01/23 10:06:04;;;;;;;95.43;85.25;;;;;;;;;;5037711;28;20040;-79
2024/01/23 10:08:29;;;;;;;100.63;89.95;;;;;;;;;;5035111;28;20028;-78
2024/01/23 10:11:01;;;;;;;114.40;102.32;;;;;;;;;;5033860;28;20025;-79
2024/01/23 10:13:27;;;;;;;96.65;86.70;;;;;;;;;;5035147;28;20111;-78
2024/01/23 10:15:56;;;;;;;87.13;77.90;;;;;;;;;;5035304;28;20525;-78
2024/01/23 10:18:22;;;;;;;83.32;74.43;;;;;;;;;;5035119;28;20134;-78
2024/01/23 10:20:47;;;;;;;94.30;84.28;;;;;;;;;;5036306;28;20475;-78
2024/01/23 10:23:13;;;;;;;106.28;94.88;;;;;;;;;;5033913;28;20044;-76
2024/01/23 10:25:39;;;;;;;117.40;103.88;;;;;;;;;;5034715;28;21539;-77
2024/01/23 10:28:08;;;;;;;110.32;98.10;;;;;;;;;;5041357;28;20065;-78
2024/01/23 10:30:36;;;;;;;121.88;107.28;;;;;;;;;;5035069;28;20025;-77
2024/01/23 10:33:02;;;;;;;110.82;98.43;;;;;;;;;;5035483;28;20049;-77
2024/01/23 10:35:27;;;;;;;81.32;72.53;;;;;;;;;;5038653;28;20032;-79
2024/01/23 10:37:52;;;;;;;85.15;75.95;;;;;;;;;;5035177;28;20076;-77
2024/01/23 10:40:23;;;;;;;71.00;61.97;;;;;;;;;;5036518;28;20033;-78
2024/01/23 10:42:49;;;;;;;39.78;35.28;;;;;;;;;;5032858;28;20057;-78
2024/01/23 10:45:16;;;;;;;43.90;36.80;;;;;;;;;;5034976;28;20336;-77
2024/01/23 10:47:42;;;;;;;145.52;129.48;;;;;;;;;;5032143;28;20103;-78
2024/01/23 10:50:07;;;;;;;90.85;81.18;;;;;;;;;;5033992;28;20076;-78
2024/01/23 10:52:38;;;;;;;82.50;73.85;;;;;;;;;;5033887;28;20036;-78
2024/01/23 10:55:05;;;;;;;60.45;54.13;;;;;;;;;;5035511;28;21377;-78
2024/01/23 10:57:35;;;;;;;95.55;85.22;;;;;;;;;;5035392;28;20032;-78
2024/01/23 11:00:03;;;;;;;91.53;81.72;;;;;;;;;;5035722;28;20047;-79
2024/01/23 11:02:37;;;;;;;89.63;80.47;;;;;;;;;;5034044;28;20025;-80
2024/01/23 11:05:03;;;;;;;93.55;84.03;;;;;;;;;;5034320;28;20029;-77
2024/01/23 11:07:31;;;;;;;98.97;89.15;;;;;;;;;;5035022;28;20025;-82
2024/01/23 11:09:59;;;;;;;108.22;97.10;;;;;;;;;;5034315;28;20044;-78
2024/01/23 11:12:31;;;;;;;123.57;111.22;;;;;;;;;;5035911;28;20090;-78
2024/01/23 11:14:59;;;;;;;101.55;91.30;;;;;;;;;;5031797;28;20104;-81
2024/01/23 11:17:31;;;;;;;88.80;79.13;;;;;;;;;;5034240;28;20025;-79
2024/01/23 11:20:09;;;;;;;118.90;106.30;;;;;;;;;;5034411;28;20025;-78
2024/01/23 11:22:36;;;;;;;121.68;108.43;;;;;;;;;;5037713;28;20064;-80
2024/01/23 11:25:01;;;;;;;138.80;123.53;;;;;;;;;;5034710;28;21095;-80
2024/01/23 11:27:28;;;;;;;103.95;92.18;;;;;;;;;;5031335;28;20041;-78
2024/01/23 11:29:55;;;;;;;140.65;125.47;;;;;;;;;;5033177;28;20160;-80
2024/01/23 11:32:24;;;;;;;210.07;173.50;;;;;;;;;;5032174;28;20136;-78
2024/01/23 11:35:03;;;;;;;109.60;97.97;;;;;;;;;;5029583;28;20025;-80
2024/01/23 11:37:28;;;;;;;88.78;79.43;;;;;;;;;;5037681;28;20037;-79
2024/01/23 11:39:54;;;;;;;28.02;25.13;;;;;;;;;;5034219;28;20030;-79
2024/01/23 11:42:19;;;;;;;33.17;29.80;;;;;;;;;;5034582;28;20086;-81
2024/01/23 11:44:44;;;;;;;23.52;21.00;;;;;;;;;;5033348;28;20032;-76
2024/01/23 11:47:10;;;;;;;33.70;30.25;;;;;;;;;;5034571;28;20033;-79
2024/01/23 11:49:35;;;;;;;36.25;32.67;;;;;;;;;;5032494;28;20061;-78
2024/01/23 11:52:03;;;;;;;26.63;24.13;;;;;;;;;;5037195;28;20083;-78
2024/01/23 11:54:28;;;;;;;26.23;23.65;;;;;;;;;;5032594;28;20067;-81
2024/01/23 11:56:54;;;;;;;30.70;27.80;;;;;;;;;;5038936;28;20127;-78
2024/01/23 11:59:19;;;;;;;38.10;34.25;;;;;;;;;;5034023;28;20037;-78
2024/01/23 12:01:45;;;;;;;41.63;37.55;;;;;;;;;;5034017;28;20017;-80
2024/01/23 12:04:11;;;;;;;28.67;25.77;;;;;;;;;;5032117;28;20060;-81
2024/01/23 12:06:36;;;;;;;23.98;21.58;;;;;;;;;;5032046;28;20029;-78
2024/01/23 12:09:02;;;;;;;47.38;42.70;;;;;;;;;;5033080;28;20048;-77
2024/01/23 12:11:30;;;;;;;50.65;45.55;;;;;;;;;;5031603;28;20032;-80
2024/01/23 12:13:55;;;;;;;60.55;54.25;;;;;;;;;;5035435;28;20067;-79
2024/01/23 12:16:20;;;;;;;92.82;81.72;;;;;;;;;;5034689;28;20386;-81
2024/01/23 12:18:56;;;;;;;75.35;67.35;;;;;;;;;;5042547;28;20033;-79
2024/01/23 12:21:21;;;;;;;47.20;40.50;;;;;;;;;;5039028;28;20066;-79
2024/01/23 12:23:47;;;;;;;28.00;24.75;;;;;;;;;;5036058;28;20448;-80
2024/01/23 12:26:12;;;;;;;40.60;31.40;;;;;;;;;;5036120;28;20079;-81
2024/01/23 12:28:38;;;;;;;35.88;29.63;;;;;;;;;;5037907;28;20125;-78
2024/01/23 12:31:10;;;;;;;47.63;42.47;;;;;;;;;;5042759;28;20032;-77
2024/01/23 12:33:38;;;;;;;56.10;47.20;;;;;;;;;;5039519;28;20042;-78
2024/01/23 12:36:05;;;;;;;46.47;36.90;;;;;;;;;;5031704;28;20026;-78
2024/01/23 12:38:30;;;;;;;63.50;50.67;;;;;;;;;;5034027;28;20020;-78
2024/01/23 12:40:58;;;;;;;50.85;41.88;;;;;;;;;;5035107;28;20674;-77
2024/01/23 12:43:24;;;;;;;65.32;51.67;;;;;;;;;;5034397;28;20021;-77
2024/01/23 12:45:53;;;;;;;46.47;37.47;;;;;;;;;;5032053;28;20038;-80
2024/01/23 12:48:19;;;;;;;30.07;26.87;;;;;;;;;;5030669;28;20521;-78
2024/01/23 12:50:45;;;;;;;28.17;25.20;;;;;;;;;;5033983;28;20108;-79
2024/01/23 12:53:10;;;;;;;33.40;29.95;;;;;;;;;;5029968;28;20113;-77
2024/01/23 12:55:35;;;;;;;23.38;20.90;;;;;;;;;;5032486;28;20072;-80
2024/01/23 12:58:02;;;;;;;41.45;35.45;;;;;;;;;;5036806;28;20124;-78
2024/01/23 13:00:28;;;;;;;34.72;30.77;;;;;;;;;;5034114;28;20022;-78
2024/01/23 13:02:53;;;;;;;42.08;35.47;;;;;;;;;;5031991;28;20091;-78
2024/01/23 13:05:19;;;;;;;45.90;40.92;;;;;;;;;;5030900;28;20024;-79
2024/01/23 13:07:45;;;;;;;50.13;44.63;;;;;;;;;;5030837;28;20152;-78
2024/01/23 13:10:11;;;;;;;40.83;36.42;;;;;;;;;;5025743;28;20070;-78
2024/01/23 13:12:37;;;;;;;40.00;33.80;;;;;;;;;;5027857;28;20021;-78
2024/01/23 13:15:03;;;;;;;37.20;33.25;;;;;;;;;;5031914;28;20029;-78
2024/01/23 13:17:28;;;;;;;38.83;33.42;;;;;;;;;;5019429;28;20033;-76
2024/01/23 13:19:54;;;;;;;54.65;48.85;;;;;;;;;;5016623;28;20018;-76
2024/01/23 13:22:20;;;;;;;60.40;53.85;;;;;;;;;;5024204;28;20025;-76
2024/01/23 13:24:45;;;;;;;49.00;42.30;;;;;;;;;;5025862;28;20359;-75
2024/01/23 13:27:11;;;;;;;41.22;36.92;;;;;;;;;;5027401;28;20032;-76
2024/01/23 13:29:37;;;;;;;37.13;33.22;;;;;;;;;;5027984;28;20111;-78
2024/01/23 13:32:04;;;;;;;39.88;34.60;;;;;;;;;;5025752;28;20140;-79
2024/01/23 13:34:32;;;;;;;44.47;39.60;;;;;;;;;;5029714;28;20031;-80
2024/01/23 13:36:57;;;;;;;37.10;32.45;;;;;;;;;;5026677;28;20029;-79
2024/01/23 13:39:23;;;;;;;49.78;44.42;;;;;;;;;;5029538;28;20035;-79
2024/01/23 13:41:48;;;;;;;31.35;27.00;;;;;;;;;;5024994;28;20447;-80
2024/01/23 13:44:14;;;;;;;31.92;28.10;;;;;;;;;;5032557;28;20439;-80
2024/01/23 13:46:40;;;;;;;39.33;35.28;;;;;;;;;;5025829;28;20033;-79
2024/01/23 13:49:06;;;;;;;33.95;30.33;;;;;;;;;;5027041;28;20022;-82
2024/01/23 13:51:31;;;;;;;34.53;30.77;;;;;;;;;;5028659;28;20087;-75
2024/01/23 13:53:56;;;;;;;56.08;42.42;;;;;;;;;;5027952;28;20022;-77
2024/01/23 13:56:22;;;;;;;58.25;43.85;;;;;;;;;;5028599;28;20033;-75
2024/01/23 13:58:48;;;;;;;25.98;22.15;;;;;;;;;;5026652;28;20468;-76
2024/01/23 14:01:13;;;;;;;29.33;26.13;;;;;;;;;;5026106;28;20463;-76
2024/01/23 14:03:39;;;;;;;40.65;36.05;;;;;;;;;;5027066;28;20486;-77
2024/01/23 14:06:06;;;;;;;57.65;49.75;;;;;;;;;;5020104;28;20021;-79
2024/01/23 14:08:33;;;;;;;72.32;60.35;;;;;;;;;;5018529;28;20026;-77
2024/01/23 14:10:58;;;;;;;48.60;42.03;;;;;;;;;;5028743;28;20028;-77
2024/01/23 14:13:24;;;;;;;75.63;62.22;;;;;;;;;;5053782;28;20025;-77